Sexsmith, Canada
Current Conditions -  °F | °C
As of 2:00 AM on Monday 20 Oct 2014 (Local Time) from CYQU Reporting Station
Few Clouds Few Clouds  
Wind Chill: 48°   Ceiling: Unl
Heat Index: 48°   Visibility: 25mi
Dew Point: 34°   Wind: 3mph
Humidity: 57%   Direction: 30°NNE
Pressure: 29.48"   Gusts: NA
Location:  55.35°N, 118.78°W
Report Text: CYQU 200800Z 03003KT 010V080 25SM FEW210 09/01 A2948 RMK CI2 SLP996 DENSITY ALT 2500FT
Loading
Personal Weather Stations






























Interactive Weather Map
Tropical Storm Tracking
New forecast layout! Learn more

10-Day Weather Forecast

Advertisements
Track Severe Weather on mobile